RKTH/KPO METAR and TAF weather

Enter ICAO airport designator
Station Type Date Time Source
RKTH METAR 2019/03/26 13:00 UTC NOAA

RKTH 261300Z 19005KT CAVOK 11/02 Q1017 RMK SLP180


Station Type Date Time Source
RKTH Decoded METAR 2019/03/26 13:00 UTC NOAA

Pohang Ab, Korea, South (RKTH) 35-59N 129-25E 20M
Mar 26, 2019 - 09:00 AM EDT / 2019.03.26 1300 UTC
Wind: from the S (190 degrees) at 6 MPH (5 KT):0
Visibility: greater than 7 mile(s):0
Temperature: 51 F (11 C)
Dew Point: 35 F (2 C)
Relative Humidity: 53%
Pressure (altimeter): 30.03 in. Hg (1017 hPa)
ob: RKTH 261300Z 19005KT CAVOK 11/02 Q1017 RMK SLP180
cycle: 13

Station Type Date Time Source
RKTH TAF 2019/03/26 12:52 UTC NOAA

TAF RKTH 261100Z 2612/2718 27010KT 9999 SCT030 SCT200 TN08/2621Z TX23/2706Z
BECMG 2620/2621 27013KT
BECMG 2702/2703 27018KT
BECMG 2708/2709 27013KT

Example: see airport list